createdAt,value
2023-05-19T00:00:57.780Z,80.4056
2023-05-19T00:02:00.548Z,81.2444
2023-05-19T00:03:03.431Z,81.1272
2023-05-19T00:04:06.253Z,81.4389
2023-05-19T00:05:08.311Z,81.1196
2023-05-19T00:06:10.403Z,80.3845
2023-05-19T00:07:13.032Z,79.8302
2023-05-19T00:08:15.976Z,79.5118
2023-05-19T00:20:40.034Z,80.5990
2023-05-19T00:21:42.182Z,80.6573
2023-05-19T00:22:44.266Z,80.3011
2023-05-19T00:24:48.281Z,79.9225
2023-05-19T00:25:50.353Z,79.9246
2023-05-19T00:26:52.473Z,79.7149
2023-05-19T00:27:54.537Z,81.1516
2023-05-19T00:28:56.621Z,82.0056
2023-05-19T00:29:59.513Z,81.8665
2023-05-19T00:31:02.804Z,81.4499
2023-05-19T00:34:06.631Z,79.8026
2023-05-19T00:41:19.520Z,82.4108
2023-05-19T00:42:22.229Z,82.0382
2023-05-19T00:43:24.860Z,82.2432
2023-05-19T00:44:28.157Z,81.6553
2023-05-19T00:47:42.720Z,83.6620
2023-05-19T00:55:51.497Z,81.9947
2023-05-19T00:56:53.568Z,81.4851
2023-05-19T00:57:55.649Z,82.2351
2023-05-19T00:58:58.434Z,81.0491
2023-05-19T01:00:00.603Z,80.7209
2023-05-19T01:01:02.722Z,80.4230
2023-05-19T01:02:04.785Z,80.4805
2023-05-19T01:04:08.907Z,81.4179
2023-05-19T01:05:11.033Z,82.1376
2023-05-19T01:06:13.136Z,82.5527
2023-05-19T01:07:15.211Z,83.3231
2023-05-19T01:08:17.304Z,83.2134
2023-05-19T01:09:19.390Z,82.6997
2023-05-19T01:10:22.069Z,83.2695
2023-05-19T01:11:24.913Z,82.8958
2023-05-19T01:12:26.953Z,84.6463
2023-05-19T01:13:29.642Z,84.8001
2023-05-19T01:14:31.699Z,84.9915
2023-05-19T01:15:34.488Z,84.3102
2023-05-19T01:16:36.617Z,83.8290
2023-05-19T01:17:39.403Z,84.5149
2023-05-19T01:18:42.107Z,84.6205
2023-05-19T01:19:44.277Z,84.6664
2023-05-19T01:20:46.345Z,84.7850
2023-05-19T01:21:48.416Z,84.7885
2023-05-19T01:22:50.485Z,84.7926
2023-05-19T01:23:53.634Z,85.0923
2023-05-19T01:24:52.840Z,86.1524
2023-05-19T01:25:56.252Z,86.4060
2023-05-19T01:28:00.124Z,86.7950
2023-05-19T01:29:02.897Z,87.3103
2023-05-19T01:30:04.954Z,87.8763
2023-05-19T01:31:07.032Z,87.7424
2023-05-19T01:33:11.720Z,85.2901
2023-05-19T01:34:14.610Z,84.3014
2023-05-19T01:35:16.734Z,84.3585
2023-05-19T01:36:18.817Z,85.5476
2023-05-19T01:37:21.137Z,85.8861
2023-05-19T01:38:23.186Z,85.6418
2023-05-19T01:39:25.283Z,85.9045
2023-05-19T01:41:29.969Z,85.8223
2023-05-19T01:42:32.107Z,85.0290
2023-05-19T01:43:34.216Z,84.8403
2023-05-19T01:44:36.305Z,84.6973
2023-05-19T01:45:38.912Z,84.6483
2023-05-19T01:46:41.023Z,84.0389
2023-05-19T01:47:43.136Z,84.7538
2023-05-19T01:48:45.185Z,85.3112
2023-05-19T01:49:48.408Z,86.9066
2023-05-19T01:50:49.012Z,87.5971
2023-05-19T01:52:50.715Z,84.6448
2023-05-19T01:53:53.675Z,84.1384
2023-05-19T01:54:56.446Z,84.6556
2023-05-19T01:55:58.548Z,84.7432
2023-05-19T01:57:01.234Z,85.4841
2023-05-19T01:58:03.390Z,84.8778
2023-05-19T01:59:05.501Z,84.1136
2023-05-19T02:00:07.549Z,84.7979
2023-05-19T02:01:10.433Z,85.3590
2023-05-19T02:02:13.156Z,84.6003
2023-05-19T02:03:15.952Z,83.6401
2023-05-19T02:04:18.089Z,83.7196
2023-05-19T02:05:20.116Z,83.2595
2023-05-19T02:06:22.917Z,84.0466
2023-05-19T02:07:25.636Z,83.9777
2023-05-19T02:08:27.730Z,84.4390
2023-05-19T02:09:29.795Z,84.7594
2023-05-19T02:10:33.177Z,83.9485
2023-05-19T02:11:33.539Z,85.0524
2023-05-19T02:12:34.565Z,85.4038
2023-05-19T02:13:36.650Z,85.5151
2023-05-19T02:14:39.422Z,86.0437
2023-05-19T02:15:48.614Z,85.9055
2023-05-19T02:22:52.630Z,84.4887
2023-05-19T02:25:55.627Z,85.4386
2023-05-19T02:26:57.694Z,85.3675
2023-05-19T02:27:59.799Z,84.8660
2023-05-19T02:29:01.807Z,85.4784
2023-05-19T02:30:03.876Z,86.7257
2023-05-19T02:31:07.212Z,85.7731
2023-05-19T02:42:24.863Z,84.3987
2023-05-19T02:44:29.587Z,83.9208
2023-05-19T02:45:32.482Z,84.0239
2023-05-19T02:46:34.585Z,84.3519
2023-05-19T02:47:37.314Z,84.2278
2023-05-19T02:48:40.135Z,84.1857
2023-05-19T02:49:43.892Z,84.0940
2023-05-19T02:50:43.732Z,84.2315
2023-05-19T02:51:45.980Z,84.5141
2023-05-19T02:52:48.701Z,84.5274
2023-05-19T02:53:51.499Z,85.1306
2023-05-19T02:54:54.274Z,85.0004
2023-05-19T02:55:57.029Z,84.1552
2023-05-19T02:56:59.068Z,84.2153
2023-05-19T02:58:01.181Z,84.6414
2023-05-19T02:59:03.241Z,84.8900
2023-05-19T03:00:06.044Z,84.4699
2023-05-19T03:01:06.245Z,85.1879
2023-05-19T03:02:08.493Z,85.0424
2023-05-19T03:04:13.294Z,85.0265
2023-05-19T03:05:16.038Z,84.3392
2023-05-19T03:06:18.942Z,84.4971
2023-05-19T03:09:26.019Z,87.3631
2023-05-19T03:10:28.097Z,87.5372
2023-05-19T03:11:31.159Z,86.1322
2023-05-19T03:14:34.674Z,85.2515
2023-05-19T03:16:39.676Z,84.5582
2023-05-19T03:19:43.378Z,85.2114
2023-05-19T03:20:45.471Z,85.7878
2023-05-19T03:21:48.435Z,86.0894
2023-05-19T03:22:48.458Z,85.8692
2023-05-19T03:25:52.912Z,85.2656
2023-05-19T03:30:02.426Z,85.7348
2023-05-19T03:31:02.970Z,85.6429
2023-05-19T03:32:05.066Z,85.3987
2023-05-19T03:39:18.904Z,86.3584
2023-05-19T03:40:21.573Z,86.1781
2023-05-19T03:41:23.645Z,86.2923
2023-05-19T03:42:26.335Z,85.3951
2023-05-19T03:43:29.037Z,85.8898
2023-05-19T03:44:31.891Z,85.4378
2023-05-19T03:45:34.687Z,85.1979
2023-05-19T03:46:37.393Z,85.6974
2023-05-19T03:48:42.159Z,85.2310
2023-05-19T03:49:44.919Z,85.7660
2023-05-19T03:50:47.658Z,86.3761
2023-05-19T03:51:49.746Z,86.9316
2023-05-19T03:52:57.571Z,86.9023
2023-05-19T03:53:54.433Z,87.4252
2023-05-19T03:54:57.064Z,88.0088
2023-05-19T03:55:59.192Z,88.0942
2023-05-19T03:58:03.324Z,88.1917
2023-05-19T03:59:05.465Z,88.2919
2023-05-19T04:01:10.756Z,87.6387
2023-05-19T04:02:12.904Z,87.2273
2023-05-19T04:03:15.185Z,86.9877
2023-05-19T04:05:19.616Z,87.3402
2023-05-19T04:06:21.740Z,87.0949
2023-05-19T04:07:23.857Z,86.7719
2023-05-19T04:08:25.972Z,86.9450
2023-05-19T04:09:28.090Z,86.7501
2023-05-19T04:10:31.115Z,86.6805
2023-05-19T04:18:44.900Z,89.2321
2023-05-19T04:19:47.708Z,88.6947
2023-05-19T04:20:49.877Z,88.2114
2023-05-19T04:21:51.995Z,86.7488
2023-05-19T04:22:54.610Z,87.9415
2023-05-19T04:23:56.698Z,87.7086
2023-05-19T04:24:59.532Z,88.0023
2023-05-19T04:26:02.505Z,88.1082
2023-05-19T04:34:17.067Z,87.8582
2023-05-19T04:35:19.213Z,87.4510
2023-05-19T04:36:21.379Z,87.3692
2023-05-19T04:37:24.059Z,87.7000
2023-05-19T04:38:26.819Z,87.0742
2023-05-19T04:39:28.991Z,86.7696
2023-05-19T04:40:31.384Z,86.7484
2023-05-19T04:41:33.744Z,86.3728
2023-05-19T04:42:38.960Z,85.9366
2023-05-19T04:43:38.816Z,85.7931
2023-05-19T04:44:41.613Z,85.3658
2023-05-19T04:45:44.347Z,85.7255
2023-05-19T04:46:47.387Z,86.3589
2023-05-19T04:48:49.822Z,85.9622
2023-05-19T04:52:56.492Z,84.9210
2023-05-19T04:53:59.261Z,85.3791
2023-05-19T04:55:02.062Z,85.4386
2023-05-19T04:56:04.179Z,85.2967
2023-05-19T04:58:08.920Z,84.7549
2023-05-19T05:02:15.333Z,83.6443
2023-05-19T05:03:18.274Z,83.4105
2023-05-19T05:07:26.398Z,83.3183
2023-05-19T05:14:39.627Z,82.9229
2023-05-19T05:15:39.700Z,82.4094
2023-05-19T05:16:41.868Z,82.4677
2023-05-19T05:17:44.594Z,82.0206
2023-05-19T05:18:46.796Z,81.4539
2023-05-19T05:19:48.936Z,82.3813
2023-05-19T05:20:51.096Z,81.7686
2023-05-19T05:21:53.190Z,80.6404
2023-05-19T05:22:55.276Z,80.5814
2023-05-19T05:23:57.653Z,80.9820
2023-05-19T05:24:59.787Z,80.8538
2023-05-19T05:26:01.878Z,81.8975
2023-05-19T05:27:04.656Z,81.7159
2023-05-19T05:28:07.771Z,81.4940
2023-05-19T05:43:39.354Z,83.1437
2023-05-19T05:44:42.135Z,83.7548
2023-05-19T05:45:44.956Z,83.9273
2023-05-19T05:46:47.068Z,83.2369
2023-05-19T05:47:49.196Z,83.5974
2023-05-19T05:48:51.688Z,83.6644
2023-05-19T05:49:54.422Z,83.6361
2023-05-19T05:50:57.144Z,83.1384
2023-05-19T05:53:02.678Z,83.7777
2023-05-19T05:54:04.771Z,83.6759
2023-05-19T05:55:06.902Z,83.5170
2023-05-19T05:56:09.663Z,83.1458
2023-05-19T05:57:11.817Z,83.4254
2023-05-19T05:58:14.652Z,83.1396
2023-05-19T05:59:16.754Z,83.4637
2023-05-19T06:00:18.825Z,83.6060
2023-05-19T06:01:21.572Z,83.8312
2023-05-19T06:02:23.850Z,83.1645
2023-05-19T06:03:26.097Z,83.1419
2023-05-19T06:05:30.230Z,83.6013
2023-05-19T06:06:32.978Z,83.7511
2023-05-19T06:07:35.110Z,83.0979
2023-05-19T06:08:37.238Z,82.7269
2023-05-19T06:10:00.984Z,82.7598
2023-05-19T06:17:55.487Z,83.7402
2023-05-19T06:18:58.393Z,83.8435
2023-05-19T06:26:11.941Z,83.1843
2023-05-19T06:27:14.683Z,84.0409
2023-05-19T06:28:17.656Z,83.7470
2023-05-19T06:30:19.944Z,84.2819
2023-05-19T06:31:22.921Z,84.2570
2023-05-19T06:33:25.507Z,83.6916
2023-05-19T06:34:25.903Z,83.8394
2023-05-19T06:35:28.025Z,84.1664
2023-05-19T06:37:32.653Z,83.9131
2023-05-19T06:38:35.440Z,83.8903
2023-05-19T06:39:38.130Z,83.5140
2023-05-19T06:40:40.242Z,83.5339
2023-05-19T06:41:43.103Z,83.2539
2023-05-19T06:42:45.209Z,83.6115
2023-05-19T06:43:47.322Z,83.9401
2023-05-19T06:44:50.953Z,83.9765
2023-05-19T06:45:51.316Z,83.8315
2023-05-19T06:48:55.437Z,83.0420
2023-05-19T06:49:58.562Z,83.8120
2023-05-19T06:51:59.781Z,83.8245
2023-05-19T06:53:01.977Z,83.3157
2023-05-19T06:54:04.172Z,83.6515
2023-05-19T06:55:06.514Z,84.3884
2023-05-19T06:56:14.475Z,84.4009
2023-05-19T06:57:33.209Z,84.0138
2023-05-19T07:04:23.645Z,82.7294
2023-05-19T07:05:26.503Z,83.2641
2023-05-19T07:06:28.608Z,82.9250
2023-05-19T07:07:30.689Z,83.1593
2023-05-19T07:08:32.983Z,83.1240
2023-05-19T07:09:36.217Z,83.0673
2023-05-19T07:10:39.186Z,82.8854
2023-05-19T07:11:39.643Z,82.0265
2023-05-19T07:12:41.739Z,81.8732
2023-05-19T07:13:44.167Z,81.8893
2023-05-19T07:14:46.909Z,82.3673
2023-05-19T07:15:49.613Z,82.6722
2023-05-19T07:16:51.910Z,81.5572
2023-05-19T07:17:54.383Z,81.7500
2023-05-19T07:18:55.133Z,81.3401
2023-05-19T07:19:58.131Z,81.9101
2023-05-19T07:27:11.776Z,81.1156
2023-05-19T07:28:12.200Z,80.0397
2023-05-19T07:31:17.629Z,79.6937
2023-05-19T07:32:19.915Z,79.7729
2023-05-19T07:33:21.971Z,79.6568
2023-05-19T07:34:24.330Z,79.2872
2023-05-19T07:35:26.433Z,80.2951
2023-05-19T07:36:29.144Z,79.9810
2023-05-19T07:37:31.905Z,80.8089
2023-05-19T07:38:34.718Z,81.4934
2023-05-19T07:41:41.422Z,80.9554
2023-05-19T07:42:44.557Z,79.6785
2023-05-19T07:44:46.465Z,79.6493
2023-05-19T07:45:48.584Z,79.2620
2023-05-19T07:46:51.026Z,79.0756
2023-05-19T07:47:53.169Z,78.7769
2023-05-19T07:48:56.492Z,77.7192
2023-05-19T07:49:59.212Z,77.9641
2023-05-19T07:51:01.897Z,77.1886
2023-05-19T07:52:04.940Z,76.8204
2023-05-19T07:54:06.742Z,77.7411
2023-05-19T07:55:09.474Z,78.3947
2023-05-19T07:56:11.590Z,76.2024
2023-05-19T07:57:14.298Z,76.7685
2023-05-19T07:58:16.421Z,77.0224
2023-05-19T07:59:19.139Z,77.6122
2023-05-19T08:00:21.240Z,76.5884
2023-05-19T08:01:24.080Z,76.1743
2023-05-19T08:03:28.185Z,75.6102
2023-05-19T08:06:34.286Z,77.8112
2023-05-19T08:07:36.374Z,78.7469
2023-05-19T08:08:39.152Z,78.0361
2023-05-19T08:09:41.831Z,78.8524
2023-05-19T08:10:43.914Z,79.2644
2023-05-19T08:11:45.955Z,79.6496
2023-05-19T08:14:53.055Z,79.0652
2023-05-19T08:15:55.881Z,79.8126
2023-05-19T08:16:58.562Z,78.1890
2023-05-19T08:18:01.359Z,78.5165
2023-05-19T08:19:03.448Z,79.1154
2023-05-19T08:20:06.105Z,78.0155
2023-05-19T08:21:08.752Z,77.9686
2023-05-19T08:22:10.800Z,78.1755
2023-05-19T08:23:12.871Z,78.1092
2023-05-19T08:24:15.558Z,78.0675
2023-05-19T08:25:18.212Z,77.6453
2023-05-19T08:46:04.072Z,77.8983
2023-05-19T08:47:06.277Z,78.8423
2023-05-19T08:48:08.504Z,77.3279
2023-05-19T08:49:10.562Z,78.2329
2023-05-19T08:50:12.707Z,77.6245
2023-05-19T08:51:14.828Z,76.3992
2023-05-19T08:52:16.933Z,76.3680
2023-05-19T08:53:32.539Z,75.6928
2023-05-19T08:59:30.810Z,74.0056
2023-05-19T09:00:33.179Z,74.1639
2023-05-19T09:21:12.728Z,75.7735
2023-05-19T09:22:14.902Z,76.3863
2023-05-19T09:23:17.045Z,76.0733
2023-05-19T09:24:19.070Z,76.3629
2023-05-19T09:25:21.205Z,76.6552
2023-05-19T09:26:23.328Z,78.5202
2023-05-19T09:27:25.455Z,78.7055
2023-05-19T09:28:27.630Z,77.3750
2023-05-19T09:29:29.711Z,77.5454
2023-05-19T09:30:31.804Z,78.3744
2023-05-19T09:31:33.926Z,78.3184
2023-05-19T09:32:36.060Z,77.6237
2023-05-19T09:33:38.168Z,78.3118
2023-05-19T09:34:40.246Z,77.0249
2023-05-19T09:35:42.358Z,77.7806
2023-05-19T09:36:44.588Z,78.3691
2023-05-19T09:37:46.689Z,77.1598
2023-05-19T09:38:48.936Z,75.8671
2023-05-19T09:39:51.082Z,76.9314
2023-05-19T09:40:53.151Z,75.2632
2023-05-19T09:41:55.249Z,74.9615
2023-05-19T09:42:57.404Z,75.5666
2023-05-19T09:43:59.610Z,73.7036
2023-05-19T09:45:01.679Z,74.4512
2023-05-19T09:46:03.933Z,73.9713
2023-05-19T09:47:06.084Z,74.1743
2023-05-19T09:48:08.263Z,73.6713
2023-05-19T09:49:10.328Z,75.0755
2023-05-19T09:50:12.444Z,74.1279
2023-05-19T09:51:14.495Z,73.4908
2023-05-19T09:52:16.537Z,72.8349
2023-05-19T09:53:18.636Z,72.8042
2023-05-19T09:54:20.712Z,74.1243
2023-05-19T09:55:22.772Z,74.9355
2023-05-19T09:56:24.857Z,74.2084
2023-05-19T09:57:26.905Z,73.7306
2023-05-19T09:58:28.967Z,73.6275
2023-05-19T09:59:33.351Z,72.9745
2023-05-19T10:00:33.349Z,73.3803
2023-05-19T10:01:35.659Z,73.4299
2023-05-19T10:02:37.781Z,72.1338
2023-05-19T10:03:39.900Z,72.9478
2023-05-19T10:04:42.008Z,76.0451
2023-05-19T10:05:44.064Z,74.9799
2023-05-19T10:06:46.129Z,73.1089
2023-05-19T10:07:48.256Z,73.5065
2023-05-19T10:08:50.399Z,71.8305
2023-05-19T10:09:52.478Z,70.3314
2023-05-19T10:10:54.602Z,69.6736
2023-05-19T10:11:56.709Z,70.6496
2023-05-19T10:12:58.896Z,70.1042
2023-05-19T10:14:00.937Z,71.5111
2023-05-19T10:15:03.029Z,72.4677
2023-05-19T10:16:05.156Z,72.2396
2023-05-19T10:17:07.359Z,71.9187
2023-05-19T10:18:09.716Z,72.4751
2023-05-19T10:19:11.859Z,71.7638
2023-05-19T10:20:13.938Z,72.0153
2023-05-19T10:21:16.028Z,73.0537
2023-05-19T10:22:18.120Z,73.1459
2023-05-19T10:23:20.289Z,72.9490
2023-05-19T10:24:23.162Z,73.4628
2023-05-19T10:25:25.491Z,72.3251
2023-05-19T10:26:27.601Z,72.2084
2023-05-19T10:27:29.683Z,72.8687
2023-05-19T10:28:31.784Z,73.3290
2023-05-19T10:29:33.912Z,72.9232
2023-05-19T10:30:35.967Z,71.1822
2023-05-19T10:31:38.089Z,73.4218
2023-05-19T10:32:40.313Z,72.7072
2023-05-19T10:33:42.405Z,72.7951
2023-05-19T10:34:44.561Z,73.0159
2023-05-19T10:35:47.255Z,72.0926
2023-05-19T10:36:46.792Z,73.2727
2023-05-19T10:37:48.907Z,73.7973
2023-05-19T10:38:50.928Z,73.0694
2023-05-19T10:39:53.029Z,74.5058
2023-05-19T10:40:55.113Z,72.7026
2023-05-19T10:41:57.203Z,72.5822
2023-05-19T10:42:59.257Z,73.8378
2023-05-19T10:44:01.625Z,72.5271
2023-05-19T10:45:03.744Z,72.2418
2023-05-19T10:46:05.829Z,72.9125
2023-05-19T10:47:07.960Z,74.0414
2023-05-19T10:48:10.140Z,70.9945
2023-05-19T10:49:12.214Z,69.7755
2023-05-19T10:50:14.471Z,71.6446
2023-05-19T10:51:16.759Z,73.3842
2023-05-19T10:52:18.891Z,72.8085
2023-05-19T10:53:20.991Z,73.2801
2023-05-19T10:54:23.174Z,71.5557
2023-05-19T10:55:25.317Z,73.2320
2023-05-19T10:56:28.196Z,72.3161
2023-05-19T10:58:29.358Z,71.0590
2023-05-19T10:59:31.441Z,70.7821
2023-05-19T11:00:33.593Z,71.9243
2023-05-19T11:09:51.212Z,72.9256
2023-05-19T11:10:53.298Z,70.9308
2023-05-19T11:11:55.365Z,71.0520
2023-05-19T11:14:00.075Z,72.1622
2023-05-19T11:15:02.158Z,72.0325
2023-05-19T11:16:04.226Z,72.2266
2023-05-19T11:17:06.429Z,69.0769
2023-05-19T11:18:08.509Z,69.6553
2023-05-19T11:19:10.728Z,69.8365
2023-05-19T11:20:13.014Z,71.4714
2023-05-19T11:21:15.111Z,69.7148
2023-05-19T11:22:17.476Z,67.1866
2023-05-19T11:23:19.661Z,70.1594
2023-05-19T11:24:21.786Z,67.7133
2023-05-19T11:25:23.953Z,69.0585
2023-05-19T11:26:26.061Z,68.1124
2023-05-19T11:27:28.306Z,69.2619
2023-05-19T11:28:30.321Z,69.2451
2023-05-19T11:29:32.867Z,71.0058
2023-05-19T11:30:33.509Z,71.3278
2023-05-19T11:31:35.657Z,71.7560
2023-05-19T11:32:37.797Z,72.4971
2023-05-19T11:33:39.858Z,72.2738
2023-05-19T11:34:41.904Z,72.1503
2023-05-19T11:35:43.960Z,70.3982
2023-05-19T11:36:46.117Z,69.5699
2023-05-19T11:37:48.173Z,70.2784
2023-05-19T11:38:50.234Z,68.6678
2023-05-19T11:39:52.338Z,66.9726
2023-05-19T11:40:54.378Z,66.4031
2023-05-19T11:41:56.457Z,66.9125
2023-05-19T11:42:58.506Z,64.3793
2023-05-19T11:44:00.571Z,62.9968
2023-05-19T11:45:02.591Z,64.5056
2023-05-19T11:46:04.679Z,64.3158
2023-05-19T11:47:06.728Z,66.4780
2023-05-19T11:48:08.906Z,65.8458
2023-05-19T11:49:10.948Z,66.1195
2023-05-19T11:50:13.122Z,64.7563
2023-05-19T11:51:15.153Z,66.5575
2023-05-19T11:52:17.252Z,65.8680
2023-05-19T11:53:19.324Z,63.0204
2023-05-19T11:54:21.392Z,64.2015
2023-05-19T11:55:23.519Z,63.6498
2023-05-19T11:56:25.665Z,65.3939
2023-05-19T11:57:27.725Z,64.3516
2023-05-19T11:59:33.492Z,62.7116
2023-05-19T12:00:34.712Z,64.3303
2023-05-19T12:01:36.794Z,62.0370
2023-05-19T12:02:38.968Z,62.6206
2023-05-19T12:03:41.176Z,62.8323
2023-05-19T12:04:43.322Z,65.1438
2023-05-19T12:05:45.886Z,59.9122
2023-05-19T12:06:45.629Z,63.6827
2023-05-19T12:07:47.644Z,65.0325
2023-05-19T12:08:49.663Z,64.1262
2023-05-19T12:09:51.701Z,62.1732
2023-05-19T12:10:53.669Z,64.0559
2023-05-19T12:11:55.706Z,64.8739
2023-05-19T12:12:57.682Z,63.3701
2023-05-19T12:13:59.690Z,64.0888
2023-05-19T12:15:01.656Z,64.8968
2023-05-19T12:16:03.753Z,66.1319
2023-05-19T12:17:05.792Z,66.4616
2023-05-19T12:18:07.886Z,65.9937
2023-05-19T12:19:09.996Z,64.0420
2023-05-19T12:20:12.121Z,65.0592
2023-05-19T12:21:14.497Z,67.4012
2023-05-19T12:22:16.660Z,67.6081
2023-05-19T12:23:18.654Z,65.0191
2023-05-19T12:24:20.702Z,63.9780
2023-05-19T12:25:22.714Z,63.8972
2023-05-19T12:26:24.749Z,65.4887
2023-05-19T12:27:26.817Z,62.5131
2023-05-19T12:28:28.888Z,63.8851
2023-05-19T12:29:30.929Z,64.2388
2023-05-19T12:30:33.934Z,64.8288
2023-05-19T12:31:34.015Z,63.8843
2023-05-19T12:32:36.174Z,64.5126
2023-05-19T12:33:38.208Z,62.7475
2023-05-19T12:34:40.277Z,64.2462
2023-05-19T12:35:42.350Z,62.2360
2023-05-19T12:36:44.376Z,63.4788
2023-05-19T12:37:46.473Z,64.4038
2023-05-19T12:38:48.534Z,62.2257
2023-05-19T12:39:50.865Z,62.8592
2023-05-19T12:40:52.912Z,63.8721
2023-05-19T12:41:54.911Z,64.2254
2023-05-19T12:42:56.909Z,63.3440
2023-05-19T12:43:58.902Z,63.6037
2023-05-19T12:45:02.297Z,64.5773
2023-05-19T12:46:02.318Z,65.3185
2023-05-19T12:50:10.102Z,66.6927
2023-05-19T12:51:12.348Z,65.7515
2023-05-19T12:52:14.354Z,66.4048
2023-05-19T12:53:16.438Z,67.2270
2023-05-19T12:54:18.403Z,67.1252
2023-05-19T12:55:20.845Z,66.6140
2023-05-19T12:56:22.898Z,65.7418
2023-05-19T12:57:24.993Z,67.1908
2023-05-19T12:58:27.379Z,67.9400
2023-05-19T12:59:38.351Z,68.1270
2023-05-19T13:00:31.796Z,67.7282
2023-05-19T13:01:34.250Z,67.4359
2023-05-19T13:02:36.492Z,66.1410
2023-05-19T13:03:38.760Z,66.8617
2023-05-19T13:04:40.848Z,67.4662
2023-05-19T13:05:42.885Z,68.7610
2023-05-19T13:06:44.987Z,64.4398
2023-05-19T13:07:46.996Z,65.7286
2023-05-19T13:08:49.044Z,64.9000
2023-05-19T13:09:51.097Z,64.7665
2023-05-19T13:10:53.138Z,64.3078
2023-05-19T13:11:55.334Z,66.3565
2023-05-19T13:12:57.372Z,65.8758
2023-05-19T13:13:59.524Z,65.9016
2023-05-19T13:15:01.550Z,67.5553
2023-05-19T13:16:03.650Z,67.6712
2023-05-19T13:17:05.679Z,69.2908
2023-05-19T13:18:07.791Z,69.7818
2023-05-19T13:19:23.877Z,69.0845
2023-05-19T13:20:11.923Z,69.6015
2023-05-19T13:21:14.217Z,70.6278
2023-05-19T13:22:16.254Z,71.7234
2023-05-19T13:23:18.341Z,71.8041
2023-05-19T13:24:20.376Z,70.3105
2023-05-19T13:25:22.524Z,71.4023
2023-05-19T13:26:24.712Z,70.1238
2023-05-19T13:27:26.759Z,69.4764
2023-05-19T13:28:28.917Z,69.2590
2023-05-19T13:29:31.000Z,70.3471
2023-05-19T13:30:33.342Z,69.3303
2023-05-19T13:31:35.989Z,68.9294
2023-05-19T13:32:38.186Z,68.9653
2023-05-19T13:33:40.242Z,69.9838
2023-05-19T13:34:42.459Z,70.8822
2023-05-19T13:35:44.545Z,70.5523
2023-05-19T13:36:46.943Z,70.0819
2023-05-19T13:37:49.089Z,71.0225
2023-05-19T13:38:51.152Z,72.7129
2023-05-19T13:39:53.321Z,71.4411
2023-05-19T13:40:55.381Z,70.9702
2023-05-19T13:41:57.452Z,71.3056
2023-05-19T13:42:59.544Z,71.8310
2023-05-19T13:44:01.631Z,72.7535
2023-05-19T13:45:03.764Z,70.2970
2023-05-19T13:46:05.923Z,69.7183
2023-05-19T13:47:08.105Z,70.3577
2023-05-19T13:48:10.344Z,71.1162
2023-05-19T13:49:12.466Z,71.3874
2023-05-19T13:50:14.520Z,70.7659
2023-05-19T13:51:16.696Z,70.7185
2023-05-19T13:52:18.759Z,69.1900
2023-05-19T13:53:20.915Z,70.1979
2023-05-19T13:54:22.998Z,69.8365
2023-05-19T13:55:25.088Z,69.2911
2023-05-19T13:56:27.253Z,69.5662
2023-05-19T13:57:29.352Z,69.7821
2023-05-19T13:58:31.421Z,69.3031
2023-05-19T13:59:33.519Z,68.9530
2023-05-19T14:00:35.799Z,69.1354
2023-05-19T14:01:40.429Z,71.0382
2023-05-19T14:02:40.946Z,70.1047
2023-05-19T14:03:43.240Z,70.3008
2023-05-19T14:04:45.530Z,72.5893
2023-05-19T14:05:47.661Z,73.5622
2023-05-19T14:06:49.958Z,71.5222
2023-05-19T14:07:52.139Z,72.1464
2023-05-19T14:08:54.262Z,71.6716
2023-05-19T14:09:56.418Z,72.4110
2023-05-19T14:10:58.642Z,72.0061
2023-05-19T14:12:00.855Z,72.8979
2023-05-19T14:20:17.513Z,73.3242
2023-05-19T14:21:19.692Z,72.7288
2023-05-19T14:22:21.895Z,72.5144
2023-05-19T14:23:24.144Z,72.1706
2023-05-19T14:24:26.340Z,71.6539
2023-05-19T14:25:28.567Z,71.7232
2023-05-19T14:26:30.767Z,71.3941
2023-05-19T14:27:33.187Z,71.1245
2023-05-19T14:28:35.523Z,72.6888
2023-05-19T14:29:38.052Z,74.3214
2023-05-19T14:30:40.513Z,75.4965
2023-05-19T14:31:42.728Z,73.1472
2023-05-19T14:32:44.973Z,73.5545
2023-05-19T14:33:47.115Z,72.9487
2023-05-19T14:34:49.306Z,71.8440
2023-05-19T14:35:51.522Z,71.0871
2023-05-19T14:36:53.846Z,71.4503
2023-05-19T14:37:56.106Z,71.5327
2023-05-19T14:38:58.364Z,71.6057
2023-05-19T14:40:00.608Z,71.7854
2023-05-19T14:41:02.924Z,72.3575
2023-05-19T14:42:05.379Z,71.3336
2023-05-19T14:43:07.665Z,70.5323
2023-05-19T14:44:09.999Z,70.4364
2023-05-19T14:46:14.329Z,72.0309
2023-05-19T14:47:16.620Z,71.7494
2023-05-19T14:48:18.862Z,70.8885
2023-05-19T14:49:21.284Z,71.1947
2023-05-19T14:50:23.509Z,70.5326
2023-05-19T14:51:25.778Z,69.8674
2023-05-19T14:52:28.023Z,72.0296
2023-05-19T14:53:30.367Z,70.8684
2023-05-19T14:54:32.568Z,69.9041
2023-05-19T14:55:34.877Z,70.4109
2023-05-19T14:56:37.043Z,69.7052
2023-05-19T14:57:39.338Z,70.7454
2023-05-19T14:58:41.495Z,70.4769
2023-05-19T14:59:43.672Z,70.8931
2023-05-19T15:00:45.907Z,70.2958
2023-05-19T15:01:48.180Z,71.0838
2023-05-19T15:02:50.513Z,70.9757
2023-05-19T15:03:52.821Z,70.8261
2023-05-19T15:04:55.117Z,72.2842
2023-05-19T15:05:57.319Z,70.8139
2023-05-19T15:08:02.271Z,70.1430
2023-05-19T15:09:02.852Z,70.5682
2023-05-19T15:10:05.047Z,70.6175
2023-05-19T15:11:07.247Z,71.2448
2023-05-19T15:12:09.452Z,70.7232
2023-05-19T15:13:11.652Z,69.9396
2023-05-19T15:14:11.865Z,70.8251
2023-05-19T15:15:14.070Z,71.9283
2023-05-19T15:16:17.996Z,70.6437
2023-05-19T15:17:18.625Z,71.6551
2023-05-19T15:18:20.868Z,72.0262
2023-05-19T15:19:23.213Z,70.9397
2023-05-19T15:20:26.964Z,70.6212
2023-05-19T15:21:27.746Z,72.0282
2023-05-19T15:22:30.021Z,73.4781
2023-05-19T15:23:32.350Z,73.2245
2023-05-19T15:24:52.871Z,73.5360
2023-05-19T15:30:43.850Z,74.6702
2023-05-19T15:31:46.661Z,74.8005
2023-05-19T15:32:49.540Z,74.5653
2023-05-19T15:33:52.315Z,74.3569
2023-05-19T15:34:54.474Z,74.4424
2023-05-19T15:35:56.650Z,74.4292
2023-05-19T15:36:59.483Z,74.5371
2023-05-19T15:45:13.129Z,73.9688
2023-05-19T15:50:25.135Z,73.8196
2023-05-19T15:51:28.123Z,73.9146
2023-05-19T15:52:28.324Z,74.5078
2023-05-19T15:53:30.534Z,74.9808
2023-05-19T15:55:36.160Z,74.5958
2023-05-19T15:57:37.719Z,74.3445
2023-05-19T15:58:39.920Z,74.1195
2023-05-19T15:59:42.118Z,73.5954
2023-05-19T16:08:03.255Z,73.9476
2023-05-19T16:09:03.351Z,74.7094
2023-05-19T16:11:06.068Z,73.0445
2023-05-19T16:12:08.837Z,73.4582
2023-05-19T16:13:11.025Z,73.7626
2023-05-19T16:14:13.843Z,72.0768
2023-05-19T16:15:16.220Z,72.2836
2023-05-19T16:16:21.067Z,72.1022
2023-05-19T16:33:55.901Z,71.3088
2023-05-19T16:35:57.406Z,70.8411
2023-05-19T16:37:00.350Z,71.4127
2023-05-19T16:38:03.272Z,72.5137
2023-05-19T16:39:06.179Z,74.6395
2023-05-19T16:40:08.400Z,72.7547
2023-05-19T16:41:11.254Z,73.1304
2023-05-19T16:42:10.599Z,72.0774
2023-05-19T16:43:13.753Z,72.3676
2023-05-19T16:44:15.143Z,73.1736
2023-05-19T16:47:19.862Z,72.0755
2023-05-19T16:48:20.009Z,73.3931
2023-05-19T16:49:22.167Z,73.9702
2023-05-19T16:50:25.029Z,72.8266
2023-05-19T16:55:29.958Z,73.8585
2023-05-19T16:56:32.703Z,74.4690
2023-05-19T16:57:35.452Z,75.4649
2023-05-19T16:58:38.258Z,74.4775
2023-05-19T16:59:41.277Z,75.2449
2023-05-19T17:02:46.647Z,74.3399
2023-05-19T17:06:54.094Z,74.3882
2023-05-19T17:12:03.991Z,74.0073
2023-05-19T17:13:06.210Z,73.7679
2023-05-19T17:14:09.280Z,74.3389
2023-05-19T17:26:34.537Z,75.1429
2023-05-19T17:27:33.841Z,74.9098
2023-05-19T17:28:35.986Z,75.1898
2023-05-19T17:29:38.342Z,74.3474
2023-05-19T17:30:41.127Z,74.7926
2023-05-19T17:31:44.629Z,74.3125
2023-05-19T17:44:09.965Z,75.4636
2023-05-19T17:47:10.749Z,75.7294
2023-05-19T17:49:12.616Z,76.1194
2023-05-19T17:54:22.496Z,76.5893
2023-05-19T17:55:22.634Z,76.4030
2023-05-19T17:58:27.301Z,76.6629
2023-05-19T18:04:34.851Z,76.7111
2023-05-19T18:05:37.851Z,76.1390
2023-05-19T18:10:48.137Z,74.7352
2023-05-19T18:12:50.067Z,76.2781